Time;durP1;ratioP1;P1;durP2;ratioP2;P2;SDS_P1;SDS_P2;PMS_P1;PMS_P2;Temp;Humidity;BMP_temperature;BMP_pressure;BME280_temperature;BME280_humidity;BME280_pressure;Samples;Min_cycle;Max_cycle;Signal;HPM_P1;HPM_P2
2021/05/19 00:00:12;;;;;;;3.05;2.42;;;12.10;99.90;;;;;;5085911;28;20044;-78
2021/05/19 00:02:39;;;;;;;4.53;2.30;;;12.20;99.90;;;;;;5066238;28;20093;-79
2021/05/19 00:05:07;;;;;;;5.80;2.70;;;12.20;99.90;;;;;;5084417;28;20055;-79
2021/05/19 00:07:34;;;;;;;4.07;2.35;;;12.20;99.90;;;;;;5084646;28;20052;-76
2021/05/19 00:10:01;;;;;;;4.30;2.45;;;12.20;99.90;;;;;;5082209;28;20068;-76
2021/05/19 00:12:28;;;;;;;4.75;2.30;;;12.20;99.90;;;;;;5084085;28;20068;-76
2021/05/19 00:14:55;;;;;;;5.65;2.33;;;12.20;99.90;;;;;;5086454;28;20133;-76
2021/05/19 00:17:24;;;;;;;5.97;2.78;;;12.10;99.90;;;;;;5088010;28;20513;-76
2021/05/19 00:19:52;;;;;;;3.17;2.50;;;12.30;99.90;;;;;;5085081;28;20051;-78
2021/05/19 00:22:19;;;;;;;3.72;2.70;;;12.10;99.90;;;;;;5086938;28;20076;-76
2021/05/19 00:24:46;;;;;;;4.72;2.30;;;12.20;99.90;;;;;;5089027;28;20059;-76
2021/05/19 00:27:16;;;;;;;2.92;2.42;;;12.30;99.90;;;;;;5097989;28;20052;-77
2021/05/19 00:29:44;;;;;;;3.28;2.45;;;12.20;99.90;;;;;;5086941;28;20110;-76
2021/05/19 00:32:11;;;;;;;4.25;2.38;;;12.20;99.90;;;;;;5085721;28;20051;-76
2021/05/19 00:34:38;;;;;;;4.63;2.58;;;12.10;99.90;;;;;;5085662;28;20044;-78
2021/05/19 00:37:05;;;;;;;2.17;1.98;;;12.10;99.90;;;;;;5087039;28;20109;-77
2021/05/19 00:39:32;;;;;;;4.63;2.40;;;12.20;99.90;;;;;;5087360;28;20538;-77
2021/05/19 00:41:59;;;;;;;3.53;2.13;;;12.10;99.90;;;;;;5084679;28;20064;-78
2021/05/19 00:44:26;;;;;;;2.97;2.28;;;12.00;99.90;;;;;;5087702;28;20056;-77
2021/05/19 00:46:53;;;;;;;3.45;2.10;;;12.10;99.90;;;;;;5085461;28;20058;-75
2021/05/19 00:49:20;;;;;;;2.53;2.03;;;12.10;99.90;;;;;;5086052;28;20525;-76
2021/05/19 00:51:47;;;;;;;4.95;2.50;;;12.20;99.90;;;;;;5088097;28;20056;-77
2021/05/19 00:54:14;;;;;;;3.78;2.63;;;12.20;99.90;;;;;;5085391;28;20560;-76
2021/05/19 00:56:41;;;;;;;6.68;2.40;;;12.20;99.90;;;;;;5085304;28;20043;-77
2021/05/19 00:59:11;;;;;;;4.80;2.55;;;12.20;99.90;;;;;;5084939;28;20052;-77
2021/05/19 01:01:39;;;;;;;6.93;2.40;;;12.00;99.90;;;;;;5083750;28;20052;-76
2021/05/19 01:04:14;;;;;;;4.18;2.42;;;11.90;99.90;;;;;;5087742;28;20055;-77
2021/05/19 01:06:57;;;;;;;3.72;2.10;;;11.80;99.90;;;;;;5085069;28;20052;-74
2021/05/19 01:09:36;;;;;;;5.72;2.42;;;11.80;99.90;;;;;;5086037;28;20140;-75
2021/05/19 01:12:29;;;;;;;3.85;2.20;;;11.80;99.90;;;;;;5073391;28;20045;-74
2021/05/19 01:14:56;;;;;;;3.25;2.20;;;11.80;99.90;;;;;;5078701;28;20114;-75
2021/05/19 01:17:23;;;;;;;4.35;2.72;;;11.80;99.90;;;;;;5073574;28;20141;-75
2021/05/19 01:19:52;;;;;;;2.92;2.40;;;11.70;99.90;;;;;;5071905;28;20137;-75
2021/05/19 01:22:19;;;;;;;5.55;2.40;;;11.80;99.90;;;;;;5083220;28;20448;-74
2021/05/19 01:24:49;;;;;;;3.65;2.50;;;11.70;99.90;;;;;;5071548;28;20075;-75
2021/05/19 01:27:16;;;;;;;5.70;2.38;;;11.80;99.90;;;;;;5085827;28;20067;-75
2021/05/19 01:29:51;;;;;;;4.97;2.83;;;11.80;99.90;;;;;;5081724;28;20094;-75
2021/05/19 01:32:18;;;;;;;3.50;2.40;;;12.00;99.90;;;;;;5073099;28;20041;-76
2021/05/19 01:34:46;;;;;;;5.75;3.17;;;12.10;99.90;;;;;;5079059;28;20052;-75
2021/05/19 01:37:15;;;;;;;5.32;2.97;;;12.00;99.90;;;;;;5082042;28;20588;-75
2021/05/19 01:39:44;;;;;;;5.13;2.60;;;11.90;99.90;;;;;;5079627;28;20467;-75
2021/05/19 01:42:11;;;;;;;4.97;2.90;;;11.90;99.90;;;;;;5082769;28;20048;-75
2021/05/19 01:44:39;;;;;;;4.13;2.70;;;11.80;99.90;;;;;;5083234;28;20060;-75
2021/05/19 01:47:07;;;;;;;8.13;3.72;;;11.80;99.90;;;;;;5080109;28;20072;-76
2021/05/19 01:49:40;;;;;;;6.10;3.10;;;11.80;99.90;;;;;;5082389;28;20109;-75
2021/05/19 01:52:08;;;;;;;4.95;2.97;;;11.80;99.90;;;;;;5077122;28;20550;-76
2021/05/19 01:54:38;;;;;;;4.32;2.63;;;11.80;99.90;;;;;;5084296;28;20048;-75
2021/05/19 01:57:09;;;;;;;4.67;2.97;;;11.70;99.90;;;;;;5084060;28;20086;-76
2021/05/19 01:59:36;;;;;;;4.90;2.60;;;11.50;99.90;;;;;;5080228;28;20049;-75
2021/05/19 02:02:03;;;;;;;3.88;2.50;;;11.50;99.90;;;;;;5093651;28;21449;-75
2021/05/19 02:04:31;;;;;;;4.60;2.90;;;11.60;99.90;;;;;;5083736;28;20044;-76
2021/05/19 02:06:59;;;;;;;6.50;2.80;;;11.50;99.90;;;;;;5083740;28;20045;-76
2021/05/19 02:09:27;;;;;;;3.97;2.97;;;11.40;99.90;;;;;;5080405;28;20072;-75
2021/05/19 02:11:55;;;;;;;4.22;2.75;;;11.50;99.90;;;;;;5087771;28;20055;-75
2021/05/19 02:14:22;;;;;;;6.03;3.58;;;11.40;99.90;;;;;;5077446;28;20044;-75
2021/05/19 02:16:49;;;;;;;4.00;2.70;;;11.50;99.90;;;;;;5082489;28;20479;-75
2021/05/19 02:19:17;;;;;;;6.38;3.22;;;11.40;99.90;;;;;;5082252;28;20044;-75
2021/05/19 02:21:45;;;;;;;3.80;2.85;;;11.40;99.90;;;;;;5082848;28;20053;-75
2021/05/19 02:24:13;;;;;;;3.63;2.78;;;11.50;99.90;;;;;;5080764;28;20075;-74
2021/05/19 02:26:41;;;;;;;3.17;2.42;;;11.40;99.90;;;;;;5080535;28;20055;-75
2021/05/19 02:29:09;;;;;;;3.78;2.35;;;11.40;99.90;;;;;;5080196;28;20080;-75
2021/05/19 02:31:37;;;;;;;4.40;2.20;;;11.40;99.90;;;;;;5076593;28;20098;-73
2021/05/19 02:34:04;;;;;;;2.08;1.88;;;11.40;99.90;;;;;;5080281;28;20167;-74
2021/05/19 02:36:32;;;;;;;6.00;2.33;;;11.40;99.90;;;;;;5087791;28;20093;-74
2021/05/19 02:38:59;;;;;;;3.45;2.17;;;11.40;99.90;;;;;;5095168;27;20465;-76
2021/05/19 02:41:26;;;;;;;2.65;1.90;;;11.40;99.90;;;;;;5077225;28;20045;-76
2021/05/19 02:43:53;;;;;;;3.40;2.20;;;11.40;99.90;;;;;;5081136;28;20071;-76
2021/05/19 02:46:20;;;;;;;3.47;2.40;;;11.40;99.90;;;;;;5078025;28;20105;-76
2021/05/19 02:48:47;;;;;;;4.88;2.22;;;11.20;99.90;;;;;;5080051;28;20384;-76
2021/05/19 02:51:14;;;;;;;6.28;2.35;;;11.10;99.90;;;;;;5080327;28;20075;-76
2021/05/19 02:53:40;;;;;;;4.93;2.58;;;11.30;99.90;;;;;;5071836;28;20204;-77
2021/05/19 02:56:08;;;;;;;3.00;2.25;;;11.30;99.90;;;;;;5083497;28;20107;-77
2021/05/19 02:58:35;;;;;;;6.55;2.75;;;11.40;99.90;;;;;;5081221;28;20106;-76
2021/05/19 03:01:03;;;;;;;3.90;2.65;;;11.20;99.90;;;;;;5071612;28;20496;-77
2021/05/19 03:03:30;;;;;;;5.95;2.80;;;11.30;99.90;;;;;;5078990;28;20102;-77
2021/05/19 03:05:57;;;;;;;3.22;2.45;;;11.40;99.90;;;;;;5077285;28;20548;-76
2021/05/19 03:08:23;;;;;;;3.63;3.00;;;11.40;99.90;;;;;;5078191;28;20129;-76
2021/05/19 03:10:50;;;;;;;6.05;2.97;;;11.30;99.90;;;;;;5083585;28;20110;-76
2021/05/19 03:13:17;;;;;;;5.53;2.97;;;11.30;99.90;;;;;;5082964;28;20052;-77
2021/05/19 03:15:44;;;;;;;6.72;2.88;;;11.20;99.90;;;;;;5078866;28;20079;-78
2021/05/19 03:18:11;;;;;;;7.63;3.75;;;11.30;99.90;;;;;;5073297;28;20162;-78
2021/05/19 03:20:38;;;;;;;6.47;3.80;;;11.20;99.90;;;;;;5077531;28;20079;-77
2021/05/19 03:23:05;;;;;;;8.63;3.50;;;11.20;99.90;;;;;;5074362;28;20143;-77
2021/05/19 03:25:32;;;;;;;5.57;3.50;;;11.30;99.90;;;;;;5078208;28;20057;-76
2021/05/19 03:27:59;;;;;;;11.40;4.03;;;11.30;99.90;;;;;;5080875;28;20071;-77
2021/05/19 03:30:26;;;;;;;5.40;3.55;;;11.20;99.90;;;;;;5075836;28;20052;-77
2021/05/19 03:32:53;;;;;;;9.38;3.90;;;11.20;99.90;;;;;;5079014;28;20075;-77
2021/05/19 03:35:22;;;;;;;4.70;3.35;;;11.10;99.90;;;;;;5082806;28;20044;-78
2021/05/19 03:37:49;;;;;;;4.88;3.22;;;11.30;99.90;;;;;;5078146;28;20102;-77
2021/05/19 03:40:16;;;;;;;8.88;3.58;;;11.20;99.90;;;;;;5077860;28;20051;-77
2021/05/19 03:42:44;;;;;;;6.15;3.22;;;11.00;99.90;;;;;;5078079;28;20420;-77
2021/05/19 03:45:14;;;;;;;7.60;3.78;;;11.10;99.90;;;;;;5074706;28;20098;-76
2021/05/19 03:47:41;;;;;;;5.55;3.25;;;11.00;99.90;;;;;;5083170;28;20094;-76
2021/05/19 03:50:09;;;;;;;6.97;3.72;;;11.00;99.90;;;;;;5078915;28;20044;-76
2021/05/19 03:52:37;;;;;;;7.65;4.20;;;10.90;99.90;;;;;;5081900;28;20055;-77
2021/05/19 03:55:06;;;;;;;5.80;3.60;;;10.90;99.90;;;;;;5080883;28;20056;-77
2021/05/19 03:57:33;;;;;;;8.57;3.75;;;10.90;99.90;;;;;;5074814;28;20080;-77
2021/05/19 04:00:02;;;;;;;6.25;3.75;;;10.80;99.90;;;;;;5076786;28;20103;-77
2021/05/19 04:02:28;;;;;;;8.00;3.78;;;10.90;99.90;;;;;;5076960;28;20751;-76
2021/05/19 04:04:55;;;;;;;8.27;3.60;;;10.80;99.90;;;;;;5077466;28;20386;-76
2021/05/19 04:07:22;;;;;;;5.10;3.40;;;10.70;99.90;;;;;;5077145;28;20053;-77
2021/05/19 04:09:49;;;;;;;5.97;3.47;;;10.80;99.90;;;;;;5066613;28;20075;-76
2021/05/19 04:12:16;;;;;;;7.13;3.35;;;10.80;99.90;;;;;;5082553;28;20494;-74
2021/05/19 04:14:43;;;;;;;6.22;3.35;;;10.60;99.90;;;;;;5081258;28;20052;-76
2021/05/19 04:17:10;;;;;;;7.85;3.50;;;10.70;99.90;;;;;;5084218;28;20080;-74
2021/05/19 04:19:37;;;;;;;6.63;3.55;;;10.80;99.90;;;;;;5076871;28;20144;-74
2021/05/19 04:22:04;;;;;;;7.95;3.97;;;10.80;99.90;;;;;;5082853;28;20162;-74
2021/05/19 04:24:31;;;;;;;5.45;3.55;;;10.90;99.90;;;;;;5083713;28;20099;-74
2021/05/19 04:26:58;;;;;;;9.13;3.60;;;10.90;99.90;;;;;;5081138;28;20068;-74
2021/05/19 04:29:25;;;;;;;5.95;3.63;;;11.00;99.90;;;;;;5082350;28;20483;-74
2021/05/19 04:31:52;;;;;;;8.15;3.55;;;11.00;99.90;;;;;;5085435;28;20133;-76
2021/05/19 04:34:19;;;;;;;4.65;3.05;;;11.10;99.90;;;;;;5082814;28;20080;-77
2021/05/19 04:36:46;;;;;;;7.32;3.78;;;11.10;99.90;;;;;;5082718;28;20040;-77
2021/05/19 04:39:13;;;;;;;5.88;3.92;;;11.20;99.90;;;;;;5088507;28;20056;-77
2021/05/19 04:41:41;;;;;;;6.22;3.92;;;11.10;99.90;;;;;;5088686;28;20087;-79
2021/05/19 04:44:08;;;;;;;9.50;4.40;;;11.10;99.90;;;;;;5089005;28;20058;-75
2021/05/19 04:46:38;;;;;;;6.68;4.38;;;11.20;99.90;;;;;;5089678;28;20075;-75
2021/05/19 04:49:05;;;;;;;6.03;4.15;;;11.10;99.90;;;;;;5088979;28;20159;-78
2021/05/19 04:51:32;;;;;;;10.77;4.93;;;11.40;99.90;;;;;;5091003;28;20674;-75
2021/05/19 04:54:00;;;;;;;8.10;3.83;;;11.60;99.90;;;;;;5088016;28;20558;-75
2021/05/19 04:56:27;;;;;;;5.93;3.95;;;11.40;99.90;;;;;;5088490;28;20092;-76
2021/05/19 04:58:54;;;;;;;8.95;4.13;;;11.50;99.90;;;;;;5078127;28;20072;-75
2021/05/19 05:01:21;;;;;;;6.20;4.20;;;11.50;99.90;;;;;;5087076;28;20139;-76
2021/05/19 05:03:48;;;;;;;7.50;4.47;;;11.60;99.90;;;;;;5091239;28;20048;-75
2021/05/19 05:06:15;;;;;;;6.80;4.10;;;11.70;99.90;;;;;;5088429;28;20097;-74
2021/05/19 05:08:42;;;;;;;8.80;4.63;;;11.70;99.90;;;;;;5090397;28;20109;-75
2021/05/19 05:11:09;;;;;;;6.75;4.47;;;11.60;99.90;;;;;;5088181;28;20071;-75
2021/05/19 05:13:36;;;;;;;10.98;7.53;;;11.70;99.90;;;;;;5088700;28;20900;-75
2021/05/19 05:16:03;;;;;;;9.20;5.22;;;11.70;99.90;;;;;;5088189;28;20063;-76
2021/05/19 05:18:37;;;;;;;7.40;5.05;;;11.60;99.90;;;;;;5090249;28;20594;-75
2021/05/19 05:21:05;;;;;;;8.73;5.15;;;11.50;99.90;;;;;;5089534;28;20055;-75
2021/05/19 05:23:32;;;;;;;8.00;5.30;;;11.60;99.90;;;;;;5087779;28;20484;-75
2021/05/19 05:26:00;;;;;;;10.77;5.18;;;11.50;99.90;;;;;;5091123;28;20083;-75
2021/05/19 05:28:27;;;;;;;9.07;4.57;;;11.60;99.90;;;;;;5090226;28;20058;-75
2021/05/19 05:30:55;;;;;;;7.78;5.22;;;11.40;99.90;;;;;;5089164;28;20444;-74
2021/05/19 05:33:23;;;;;;;7.25;4.28;;;11.40;99.90;;;;;;5089564;28;20052;-75
2021/05/19 05:35:50;;;;;;;9.32;4.80;;;11.30;99.90;;;;;;5089794;28;20051;-75
2021/05/19 05:38:17;;;;;;;15.65;6.78;;;11.50;99.90;;;;;;5091214;28;20062;-75
2021/05/19 05:40:44;;;;;;;12.75;7.05;;;11.40;99.90;;;;;;5088026;28;20055;-75
2021/05/19 05:43:11;;;;;;;13.02;4.63;;;11.20;99.90;;;;;;5088911;28;20051;-76
2021/05/19 05:45:38;;;;;;;8.77;4.40;;;11.50;99.90;;;;;;5090732;28;20059;-76
2021/05/19 05:48:05;;;;;;;8.20;4.70;;;11.80;99.90;;;;;;5088613;28;20060;-76
2021/05/19 05:50:33;;;;;;;7.95;4.55;;;11.60;99.90;;;;;;5088503;28;20105;-75
2021/05/19 05:53:00;;;;;;;7.93;4.32;;;11.50;99.90;;;;;;5079825;28;20075;-75
2021/05/19 05:55:27;;;;;;;14.10;6.65;;;11.60;99.90;;;;;;5083724;28;20489;-75
2021/05/19 05:57:53;;;;;;;8.90;4.28;;;11.50;99.90;;;;;;5076106;28;20056;-75
2021/05/19 06:00:21;;;;;;;6.88;4.65;;;11.50;99.90;;;;;;5085908;28;20494;-75
2021/05/19 06:02:49;;;;;;;7.05;4.15;;;11.50;99.90;;;;;;5083478;28;20127;-76
2021/05/19 06:05:16;;;;;;;6.93;4.07;;;11.60;99.90;;;;;;5082832;28;20118;-75
2021/05/19 06:07:43;;;;;;;8.35;4.32;;;11.50;99.90;;;;;;5084524;28;20097;-75
2021/05/19 06:10:11;;;;;;;9.13;4.30;;;11.50;99.90;;;;;;5082269;28;20076;-75
2021/05/19 06:12:38;;;;;;;7.45;4.38;;;11.50;99.90;;;;;;5077978;28;20151;-75
2021/05/19 06:15:06;;;;;;;6.55;3.88;;;11.70;99.90;;;;;;5085359;28;20422;-75
2021/05/19 06:17:33;;;;;;;7.13;3.80;;;12.00;99.90;;;;;;5080635;28;20083;-75
2021/05/19 06:20:01;;;;;;;9.13;4.80;;;11.90;99.90;;;;;;5076909;28;20041;-75
2021/05/19 06:22:28;;;;;;;8.25;4.63;;;11.60;99.90;;;;;;5081804;28;20131;-75
2021/05/19 06:24:55;;;;;;;10.70;4.80;;;11.40;99.90;;;;;;5080234;28;20036;-75
2021/05/19 06:27:22;;;;;;;9.68;6.10;;;11.40;99.90;;;;;;5074151;28;20071;-75
2021/05/19 06:29:50;;;;;;;8.68;5.00;;;11.60;99.90;;;;;;5085287;28;20041;-75
2021/05/19 06:32:17;;;;;;;7.65;5.15;;;11.80;99.90;;;;;;5076595;28;20399;-75
2021/05/19 06:34:43;;;;;;;12.43;5.10;;;11.70;99.90;;;;;;5073775;28;20500;-75
2021/05/19 06:37:11;;;;;;;7.72;5.05;;;11.60;99.90;;;;;;5081215;28;20473;-74
2021/05/19 06:39:37;;;;;;;8.63;4.90;;;11.70;99.90;;;;;;5081756;28;20097;-75
2021/05/19 06:42:04;;;;;;;6.70;4.30;;;11.50;99.90;;;;;;5081388;28;20045;-73
2021/05/19 06:44:32;;;;;;;12.30;5.50;;;12.00;99.90;;;;;;5083668;28;20044;-75
2021/05/19 06:46:59;;;;;;;7.63;4.90;;;11.90;99.90;;;;;;5079358;28;20045;-74
2021/05/19 06:49:27;;;;;;;10.05;5.18;;;12.30;99.90;;;;;;5085644;28;20386;-74
2021/05/19 06:51:54;;;;;;;10.40;6.07;;;12.30;99.90;;;;;;5078791;28;20055;-74
2021/05/19 06:54:22;;;;;;;8.75;5.30;;;12.30;99.90;;;;;;5077313;28;20499;-75
2021/05/19 06:56:49;;;;;;;8.77;5.70;;;12.20;99.90;;;;;;5085719;28;20040;-73
2021/05/19 06:59:21;;;;;;;9.48;5.82;;;12.00;99.90;;;;;;5078110;28;20055;-74
2021/05/19 07:01:48;;;;;;;11.30;6.25;;;12.10;99.90;;;;;;5070293;28;20036;-75
2021/05/19 07:04:17;;;;;;;12.15;6.57;;;12.20;99.90;;;;;;5099152;28;20053;-75
2021/05/19 07:06:44;;;;;;;12.60;6.45;;;12.20;99.90;;;;;;5080245;28;20543;-74
2021/05/19 07:09:11;;;;;;;11.23;7.40;;;12.10;99.90;;;;;;5075182;28;20056;-75
2021/05/19 07:11:38;;;;;;;10.57;6.65;;;12.50;99.90;;;;;;5075680;28;20079;-74
2021/05/19 07:14:06;;;;;;;12.65;7.20;;;12.60;99.90;;;;;;5079513;28;20106;-75
2021/05/19 07:16:36;;;;;;;10.93;7.00;;;12.70;99.90;;;;;;5071925;28;20055;-74
2021/05/19 07:19:03;;;;;;;15.50;7.68;;;12.40;99.90;;;;;;5069372;28;20434;-74
2021/05/19 07:21:30;;;;;;;12.50;7.90;;;12.30;99.90;;;;;;5075338;28;20072;-74
2021/05/19 07:23:57;;;;;;;16.52;8.93;;;12.50;99.90;;;;;;5074397;28;20074;-73
2021/05/19 07:26:25;;;;;;;14.50;8.48;;;12.70;99.90;;;;;;5079520;28;20457;-74
2021/05/19 07:28:52;;;;;;;11.23;6.20;;;12.70;99.90;;;;;;5079651;28;20044;-75
2021/05/19 07:31:19;;;;;;;12.70;5.70;;;12.70;99.30;;;;;;5079202;28;20536;-74
2021/05/19 07:33:48;;;;;;;11.80;6.35;;;12.70;98.60;;;;;;5082403;28;20201;-73
2021/05/19 07:36:16;;;;;;;9.80;5.63;;;12.70;98.90;;;;;;5081995;28;20098;-74
2021/05/19 07:38:42;;;;;;;10.95;5.30;;;12.70;98.90;;;;;;5078057;28;20461;-74
2021/05/19 07:41:09;;;;;;;7.80;5.53;;;12.70;99.50;;;;;;5079901;28;20066;-74
2021/05/19 07:43:37;;;;;;;8.07;5.03;;;12.50;99.30;;;;;;5074114;28;20105;-74
2021/05/19 07:46:04;;;;;;;8.13;5.30;;;12.60;99.40;;;;;;5079894;28;20076;-74
2021/05/19 07:48:30;;;;;;;7.85;4.78;;;12.70;99.70;;;;;;5076575;28;20549;-73
2021/05/19 07:50:56;;;;;;;10.95;5.05;;;12.50;99.00;;;;;;5075955;28;20024;-74
2021/05/19 07:53:22;;;;;;;8.13;5.00;;;12.70;98.80;;;;;;5084430;28;20093;-74
2021/05/19 07:58:22;;;;;;;6.93;4.68;;;13.20;97.60;;;;;;5072310;28;20545;-74
2021/05/19 08:03:30;;;;;;;7.20;4.47;;;13.40;97.00;;;;;;5079169;28;20033;-74
2021/05/19 08:05:57;;;;;;;6.35;3.42;;;13.60;94.50;;;;;;5073771;28;20534;-74
2021/05/19 08:08:23;;;;;;;4.97;3.58;;;13.90;93.10;;;;;;5076997;28;20040;-74
2021/05/19 08:10:48;;;;;;;6.70;3.72;;;14.00;92.00;;;;;;5080162;28;20081;-74
2021/05/19 08:13:14;;;;;;;7.88;4.43;;;14.10;92.70;;;;;;5076983;28;20035;-74
2021/05/19 08:15:40;;;;;;;6.82;3.80;;;14.20;91.80;;;;;;5079167;28;20616;-74
2021/05/19 08:18:10;;;;;;;6.95;3.92;;;14.00;91.30;;;;;;5079290;28;20402;-74
2021/05/19 08:20:38;;;;;;;10.35;5.38;;;14.30;91.30;;;;;;5074717;28;20052;-74
2021/05/19 08:23:06;;;;;;;5.20;3.08;;;14.30;89.20;;;;;;5079198;28;20515;-74
2021/05/19 08:25:32;;;;;;;5.28;3.72;;;14.00;90.20;;;;;;5081766;28;20147;-74
2021/05/19 08:28:00;;;;;;;5.30;3.55;;;14.30;90.00;;;;;;5077405;28;20072;-75
2021/05/19 08:30:27;;;;;;;5.93;3.47;;;14.30;87.90;;;;;;5077485;28;20048;-74
2021/05/19 08:32:54;;;;;;;8.60;4.13;;;14.20;88.60;;;;;;5077130;28;20075;-74
2021/05/19 08:35:21;;;;;;;5.78;3.72;;;14.20;88.80;;;;;;5074991;28;20044;-74
2021/05/19 08:37:48;;;;;;;8.20;4.10;;;14.60;88.00;;;;;;5080393;28;20040;-75
2021/05/19 08:40:17;;;;;;;9.30;4.63;;;14.60;88.50;;;;;;5075471;28;20109;-74
2021/05/19 08:42:43;;;;;;;6.85;4.53;;;14.30;88.10;;;;;;5072284;28;20041;-73
2021/05/19 08:45:12;;;;;;;9.40;5.00;;;14.30;88.20;;;;;;5079811;28;20398;-74
2021/05/19 08:47:39;;;;;;;11.00;4.93;;;14.20;89.40;;;;;;5076301;28;20105;-74
2021/05/19 08:50:07;;;;;;;10.07;5.15;;;14.00;89.70;;;;;;5077338;28;20048;-74
2021/05/19 08:52:38;;;;;;;9.05;4.50;;;14.00;90.10;;;;;;5082219;28;20119;-74
2021/05/19 08:55:12;;;;;;;12.27;5.03;;;14.10;89.30;;;;;;5073966;28;20044;-76
2021/05/19 08:57:41;;;;;;;8.70;4.28;;;14.30;89.90;;;;;;5073939;28;20102;-76
2021/05/19 09:00:09;;;;;;;7.70;4.80;;;14.30;88.80;;;;;;5078324;28;20110;-75
2021/05/19 09:02:36;;;;;;;8.35;4.75;;;14.50;88.50;;;;;;5075858;28;20054;-76
2021/05/19 09:05:05;;;;;;;9.75;4.60;;;14.50;86.50;;;;;;5086815;28;20055;-76
2021/05/19 09:07:32;;;;;;;6.82;4.55;;;14.40;88.10;;;;;;5079663;28;20101;-76
2021/05/19 09:10:18;;;;;;;9.18;4.70;;;14.40;86.00;;;;;;5090006;28;20533;-76
2021/05/19 09:12:45;;;;;;;8.30;4.30;;;14.50;86.40;;;;;;5072637;28;20068;-76
2021/05/19 09:15:13;;;;;;;8.13;3.88;;;14.90;84.50;;;;;;5077102;28;20079;-75
2021/05/19 09:17:41;;;;;;;6.57;3.72;;;15.10;83.20;;;;;;5073869;28;20402;-75
2021/05/19 09:20:08;;;;;;;6.57;3.67;;;14.90;82.20;;;;;;5077736;28;20048;-76
2021/05/19 09:22:40;;;;;;;6.75;3.22;;;15.00;77.70;;;;;;5077314;28;20470;-76
2021/05/19 09:25:26;;;;;;;6.53;3.75;;;15.10;77.50;;;;;;5076106;28;20087;-76
2021/05/19 09:27:58;;;;;;;6.38;3.33;;;15.20;75.60;;;;;;5077000;28;20461;-75
2021/05/19 09:30:44;;;;;;;8.85;4.15;;;15.20;73.40;;;;;;5080193;28;20048;-76
2021/05/19 09:33:11;;;;;;;9.13;3.63;;;14.90;74.40;;;;;;5079610;28;20048;-76
2021/05/19 09:35:38;;;;;;;4.70;2.72;;;15.10;74.70;;;;;;5085676;28;20040;-76
2021/05/19 09:38:25;;;;;;;6.72;3.63;;;15.20;67.30;;;;;;5082317;28;20462;-76
2021/05/19 09:41:15;;;;;;;9.68;3.60;;;15.20;69.00;;;;;;5079641;28;20051;-76
2021/05/19 09:43:42;;;;;;;7.03;3.10;;;15.90;68.10;;;;;;5065678;28;20055;-75
2021/05/19 09:49:17;;;;;;;4.95;2.85;;;15.10;65.90;;;;;;5082886;28;20147;-75
2021/05/19 09:51:47;;;;;;;7.65;3.15;;;15.40;67.40;;;;;;5084435;28;20052;-75
2021/05/19 09:54:28;;;;;;;;;;;15.60;65.90;;;;;;5085306;28;20071;-76
2021/05/19 09:57:09;;;;;;;9.18;2.47;;;15.70;65.20;;;;;;5086426;28;20006;-77
2021/05/19 09:59:42;;;;;;;8.38;2.80;;;16.00;63.20;;;;;;5086039;28;20086;-78
2021/05/19 10:02:12;;;;;;;5.47;2.63;;;15.70;63.70;;;;;;5084287;28;20060;-78
2021/05/19 10:04:51;;;;;;;8.50;2.90;;;15.70;63.80;;;;;;5086245;28;20055;-78
2021/05/19 10:07:19;;;;;;;7.65;3.13;;;15.80;63.80;;;;;;5085244;28;20579;-78
2021/05/19 10:09:47;;;;;;;8.45;2.50;;;16.10;63.20;;;;;;5084093;28;20427;-79
2021/05/19 10:12:15;;;;;;;4.63;2.60;;;16.00;63.70;;;;;;5083282;28;20089;-78
2021/05/19 10:14:42;;;;;;;9.93;2.33;;;16.00;63.90;;;;;;5084984;28;20044;-78
2021/05/19 10:17:12;;;;;;;4.88;1.80;;;16.20;60.60;;;;;;5084632;28;20117;-78
2021/05/19 10:19:48;;;;;;;3.08;1.65;;;16.40;59.60;;;;;;5081961;28;20117;-77
2021/05/19 10:22:16;;;;;;;2.85;1.83;;;16.30;58.50;;;;;;5083264;28;20108;-78
2021/05/19 10:25:17;;;;;;;6.20;1.73;;;16.50;56.40;;;;;;5083670;28;20130;-78
2021/05/19 10:27:57;;;;;;;5.35;2.40;;;16.60;56.20;;;;;;5085991;28;20059;-78
2021/05/19 10:30:51;;;;;;;4.38;1.73;;;16.70;57.10;;;;;;5083912;28;20056;-78
2021/05/19 10:33:27;;;;;;;4.07;1.80;;;16.70;55.50;;;;;;5084369;28;20141;-78
2021/05/19 10:35:55;;;;;;;4.95;1.63;;;16.80;55.20;;;;;;5095576;27;20044;-77
2021/05/19 10:38:29;;;;;;;3.78;1.88;;;16.90;54.10;;;;;;5081923;28;20506;-78
2021/05/19 10:40:58;;;;;;;6.88;1.70;;;16.80;55.60;;;;;;5093569;27;20052;-77
2021/05/19 10:43:54;;;;;;;4.22;1.40;;;16.70;54.70;;;;;;5082817;28;20048;-81
2021/05/19 10:46:46;;;;;;;4.40;1.65;;;17.00;54.90;;;;;;5085726;28;20089;-72
2021/05/19 10:49:15;;;;;;;7.47;1.50;;;16.90;54.20;;;;;;5072267;28;20574;-76
2021/05/19 10:57:20;;;;;;;4.20;1.73;;;17.30;53.60;;;;;;5086112;28;20138;-78
2021/05/19 11:00:31;;;;;;;3.25;1.52;;;17.30;53.10;;;;;;5083467;28;20063;-73
2021/05/19 11:05:29;;;;;;;3.15;1.20;;;17.00;51.60;;;;;;5086950;28;20117;-72
2021/05/19 11:10:40;;;;;;;5.22;1.38;;;17.30;52.20;;;;;;5088198;28;20127;-73
2021/05/19 11:13:08;;;;;;;3.38;1.27;;;17.40;52.10;;;;;;5084662;28;20048;-73
2021/05/19 11:15:41;;;;;;;3.75;1.50;;;17.50;52.20;;;;;;5084544;28;20618;-72
2021/05/19 11:18:16;;;;;;;5.57;1.55;;;17.50;51.70;;;;;;5087571;28;20047;-73
2021/05/19 11:20:44;;;;;;;7.90;1.50;;;17.60;52.10;;;;;;5085668;28;20134;-72
2021/05/19 11:23:12;;;;;;;4.32;1.45;;;17.60;51.60;;;;;;5084706;28;20090;-73
2021/05/19 11:25:39;;;;;;;5.80;1.83;;;17.60;50.90;;;;;;5085182;28;20083;-72
2021/05/19 11:28:06;;;;;;;2.72;1.25;;;17.80;52.10;;;;;;5084083;28;20055;-75
2021/05/19 11:30:33;;;;;;;4.00;1.23;;;17.80;51.20;;;;;;5086046;28;20096;-73
2021/05/19 11:33:06;;;;;;;10.90;1.50;;;17.90;50.70;;;;;;5084576;28;20059;-73
2021/05/19 11:35:34;;;;;;;7.50;1.23;;;17.90;50.70;;;;;;5083343;28;20645;-79
2021/05/19 11:38:06;;;;;;;7.60;1.95;;;18.30;51.10;;;;;;5088081;28;20509;-75
2021/05/19 11:40:43;;;;;;;7.00;1.85;;;18.50;50.90;;;;;;5085852;28;20079;-74
2021/05/19 11:43:11;;;;;;;1.88;1.50;;;18.60;52.20;;;;;;5084582;28;20146;-73
2021/05/19 11:45:41;;;;;;;4.05;1.60;;;18.60;52.60;;;;;;5086070;28;20887;-74
2021/05/19 11:48:20;;;;;;;3.88;1.65;;;18.60;52.20;;;;;;5085492;28;20060;-73
2021/05/19 11:50:50;;;;;;;4.32;1.77;;;18.40;53.00;;;;;;5089294;28;20105;-72
2021/05/19 11:53:18;;;;;;;4.38;1.63;;;18.20;53.20;;;;;;5082052;28;20902;-73
2021/05/19 11:55:53;;;;;;;4.95;1.85;;;17.80;54.10;;;;;;5084794;28;21352;-74
2021/05/19 11:58:25;;;;;;;3.80;1.70;;;17.60;54.90;;;;;;5084297;28;20047;-74
2021/05/19 12:01:03;;;;;;;4.60;1.30;;;17.60;54.90;;;;;;5086167;28;20467;-75
2021/05/19 12:03:32;;;;;;;4.15;2.08;;;17.80;53.40;;;;;;5086242;28;20125;-73
2021/05/19 12:06:04;;;;;;;5.15;1.70;;;18.10;53.00;;;;;;5084439;28;20055;-74
2021/05/19 12:08:34;;;;;;;8.00;2.05;;;18.40;52.40;;;;;;5086900;28;20046;-74
2021/05/19 12:11:22;;;;;;;8.03;1.77;;;18.60;51.60;;;;;;5087077;28;20044;-74
2021/05/19 12:13:55;;;;;;;6.22;1.80;;;19.20;50.30;;;;;;5086886;28;20047;-73
2021/05/19 12:16:41;;;;;;;6.20;1.73;;;19.60;49.30;;;;;;5082414;28;20079;-73
2021/05/19 12:19:12;;;;;;;4.07;1.55;;;19.70;49.20;;;;;;5083325;28;20044;-74
2021/05/19 12:21:48;;;;;;;5.18;1.40;;;21.00;48.40;;;;;;5082943;28;20126;-73
2021/05/19 12:24:18;;;;;;;4.60;1.80;;;23.80;43.10;;;;;;5083626;28;20048;-73
2021/05/19 12:26:47;;;;;;;3.35;1.50;;;22.40;45.50;;;;;;5083662;28;20059;-74
2021/05/19 12:29:36;;;;;;;3.67;1.42;;;19.70;47.40;;;;;;5082016;28;20071;-73
2021/05/19 12:32:07;;;;;;;4.72;1.58;;;19.00;49.50;;;;;;5082333;28;20048;-73
2021/05/19 12:34:34;;;;;;;8.52;1.88;;;18.80;50.20;;;;;;5079819;28;20076;-72
2021/05/19 12:37:01;;;;;;;5.60;1.98;;;18.60;50.60;;;;;;5084841;28;20048;-73
2021/05/19 12:39:32;;;;;;;4.18;1.67;;;21.80;47.40;;;;;;5083684;28;20060;-74
2021/05/19 12:42:13;;;;;;;5.50;1.38;;;24.90;44.00;;;;;;5083978;28;20470;-73
2021/05/19 12:44:44;;;;;;;3.60;1.20;;;23.30;42.50;;;;;;5083336;28;20076;-73
2021/05/19 12:47:13;;;;;;;6.50;1.35;;;22.10;43.70;;;;;;5084509;28;20040;-73
2021/05/19 12:49:52;;;;;;;5.45;2.45;;;24.10;42.60;;;;;;5085189;28;20075;-74
2021/05/19 12:52:21;;;;;;;6.45;1.88;;;24.40;41.70;;;;;;5102436;28;20445;-73
2021/05/19 12:54:50;;;;;;;3.92;1.35;;;24.80;40.00;;;;;;5085614;28;20503;-74
2021/05/19 12:57:25;;;;;;;5.13;1.30;;;22.00;42.30;;;;;;5087050;28;20048;-75
2021/05/19 12:59:53;;;;;;;3.83;1.65;;;23.40;42.00;;;;;;5086826;28;20052;-74
2021/05/19 13:02:24;;;;;;;2.95;1.33;;;24.50;40.40;;;;;;5087377;28;20135;-74
2021/05/19 13:04:53;;;;;;;2.80;1.10;;;22.30;40.80;;;;;;5085636;28;20047;-75
2021/05/19 13:07:22;;;;;;;5.32;1.30;;;20.40;43.10;;;;;;5090416;28;20093;-74
2021/05/19 13:10:16;;;;;;;2.35;1.33;;;20.20;45.40;;;;;;5084050;28;20110;-75
2021/05/19 13:13:23;;;;;;;4.03;1.20;;;20.50;44.00;;;;;;5082802;28;20166;-73
2021/05/19 13:16:09;;;;;;;5.82;2.28;;;19.70;45.40;;;;;;5087873;28;20078;-75